Samskip Ice — C6SO4 — position and weather

sailwx.info

Track history (hours):
 
Tides and Currents Weather Stations Pressure Air Temp Water Temp Dewpoint Dewpoint Depression Visibility Wind Speed Wind Dir Waves Ship Positions

Samskip Ice

Last reported at 2017-Sep-22 02:00 UTC. Time now 2017-Sep-23 16:43 UTC.
Position N 57°42' W 002°00'.

Length 86 m; draft 5.8 m.

Type: Cargo ship. MMSI: 311411000.

Date/timePositionNaut miles runAvg speedWind from/ knotsBaromVisibWave heightAir tempDewpointWater temp
2017-Sep-22 02:00N 57°42' W 002°00'0 0.3
2017-Sep-22 01:30N 57°42' W 001°60'1 2.7
2017-Sep-22 01:00N 57°42' W 001°57'2 4.6
2017-Sep-22 00:30N 57°42' W 001°53'4 7.4
2017-Sep-22 00:00N 57°41' W 001°47'5 9.5
2017-Sep-21 23:30N 57°38' W 001°40'611.1
2017-Sep-21 23:00N 57°33' W 001°33'28913.4
2017-Sep-21 01:24N 53°22' E 002°40'914.0
2017-Sep-21 00:47N 53°17' E 002°52'6012.5
2017-Sep-20 20:00N 52°36' E 004°05'612.3
2017-Sep-20 19:30N 52°32' E 004°12'612.6
2017-Sep-20 19:00N 52°30' E 004°21'611.3
2017-Sep-20 18:30N 52°28' E 004°30'3 5.5
2017-Sep-20 17:58N 52°28' E 004°35'0 0.0
2017-Sep-20 17:25N 52°28' E 004°35'0 0.0
2017-Sep-20 16:58N 52°28' E 004°35'0 0.0
2017-Sep-20 16:25N 52°28' E 004°35'0 0.0
2017-Sep-20 15:58N 52°28' E 004°35'0 0.0
2017-Sep-20 15:28N 52°28' E 004°35'0 0.0
2017-Sep-20 13:58N 52°28' E 004°35'0 0.0
2017-Sep-20 13:28N 52°28' E 004°35'0 0.0
2017-Sep-20 12:58N 52°28' E 004°35'0 0.0
2017-Sep-20 12:28N 52°28' E 004°35'0 0.0
2017-Sep-20 11:58N 52°28' E 004°35'0 0.0
2017-Sep-20 11:28N 52°28' E 004°35'0 0.0
2017-Sep-20 10:58N 52°28' E 004°35'0 0.0
2017-Sep-20 10:28N 52°28' E 004°35'0 0.0
2017-Sep-20 09:58N 52°28' E 004°35'0 0.0
2017-Sep-20 09:28N 52°28' E 004°35'0 0.0
2017-Sep-20 08:58N 52°28' E 004°35'0 0.0
2017-Sep-20 08:28N 52°28' E 004°35'0 0.0
2017-Sep-20 07:58N 52°28' E 004°35'0 0.0
2017-Sep-20 07:28N 52°28' E 004°35'0 0.0
2017-Sep-20 06:55N 52°28' E 004°35'0 0.0
2017-Sep-20 06:28N 52°28' E 004°35'0 0.0
2017-Sep-20 05:58N 52°28' E 004°35'0 0.0
2017-Sep-20 05:28N 52°28' E 004°35'0 0.0
2017-Sep-20 04:58N 52°28' E 004°35'0 0.0
2017-Sep-20 04:28N 52°28' E 004°35'0 0.0
2017-Sep-20 03:58N 52°28' E 004°35'0 0.0
2017-Sep-20 03:28N 52°28' E 004°35'0 0.0
2017-Sep-20 02:58N 52°28' E 004°35'0 0.0
2017-Sep-20 02:28N 52°28' E 004°35'0 0.0
2017-Sep-20 01:58N 52°28' E 004°35'0 0.0
2017-Sep-20 01:22N 52°28' E 004°35'0 0.0
2017-Sep-20 00:58N 52°28' E 004°35'0 0.0
2017-Sep-20 00:22N 52°28' E 004°35'0 0.0
2017-Sep-19 23:55N 52°28' E 004°35'0 0.0
2017-Sep-19 23:28N 52°28' E 004°35'0 0.0
2017-Sep-19 22:58N 52°28' E 004°35'0 0.0
2017-Sep-19 22:28N 52°28' E 004°35'0 0.0
2017-Sep-19 21:52N 52°28' E 004°35'0 0.0
2017-Sep-19 21:28N 52°28' E 004°35'0 0.0
2017-Sep-19 20:52N 52°28' E 004°35'0 0.0
2017-Sep-19 20:28N 52°28' E 004°35'0 0.0
2017-Sep-19 19:58N 52°28' E 004°35'0 0.0
2017-Sep-19 19:30N 52°28' E 004°35'1 1.6
2017-Sep-19 19:01N 52°28' E 004°36'1 2.9
2017-Sep-19 18:31N 52°28' E 004°38'1 1.7
2017-Sep-19 17:59N 52°28' E 004°40'0 0.0
2017-Sep-19 17:29N 52°28' E 004°40'0 0.0
2017-Sep-19 16:59N 52°28' E 004°40'0 0.0
2017-Sep-19 16:29N 52°28' E 004°40'0 0.0
2017-Sep-19 15:59N 52°28' E 004°40'0 0.0
2017-Sep-19 15:29N 52°28' E 004°40'0 0.0
2017-Sep-19 14:59N 52°28' E 004°40'0 0.0
2017-Sep-19 14:29N 52°28' E 004°40'0 0.0
2017-Sep-19 13:59N 52°28' E 004°40'0 0.0
2017-Sep-19 13:29N 52°28' E 004°40'0 0.0
2017-Sep-19 12:56N 52°28' E 004°40'0 0.0
2017-Sep-19 12:29N 52°28' E 004°40'0 0.0
2017-Sep-19 11:59N 52°28' E 004°40'0 0.0
2017-Sep-19 11:29N 52°28' E 004°40'0 0.0
2017-Sep-19 10:59N 52°28' E 004°40'0 0.0
2017-Sep-19 10:29N 52°28' E 004°40'0 0.0
2017-Sep-19 09:59N 52°28' E 004°40'0 0.0
2017-Sep-19 09:29N 52°28' E 004°40'0 0.0
2017-Sep-19 08:59N 52°28' E 004°40'0 0.0
2017-Sep-19 08:29N 52°28' E 004°40'0 0.0
2017-Sep-19 07:59N 52°28' E 004°40'0 0.0
2017-Sep-19 07:29N 52°28' E 004°40'0 0.0
2017-Sep-19 06:59N 52°28' E 004°40'0 0.0
2017-Sep-19 06:29N 52°28' E 004°40'0 0.0
2017-Sep-19 05:59N 52°28' E 004°40'0 0.0
2017-Sep-19 05:29N 52°28' E 004°40'0 0.0
2017-Sep-19 04:59N 52°28' E 004°40'0 0.0
2017-Sep-19 04:29N 52°28' E 004°40'0 0.0
2017-Sep-19 03:59N 52°28' E 004°40'0 0.0
2017-Sep-19 03:29N 52°28' E 004°40'0 0.0
2017-Sep-19 02:59N 52°28' E 004°40'0 0.0
2017-Sep-19 02:29N 52°28' E 004°40'0 0.0
2017-Sep-19 01:59N 52°28' E 004°40'0 0.0
2017-Sep-19 01:29N 52°28' E 004°40'0 0.0
2017-Sep-19 00:59N 52°28' E 004°40'0 0.0
2017-Sep-19 00:29N 52°28' E 004°40'0 0.0
2017-Sep-18 23:59N 52°28' E 004°40'0 0.0
2017-Sep-18 23:29N 52°28' E 004°40'0 0.0
2017-Sep-18 22:59N 52°28' E 004°40'0 0.0
2017-Sep-18 22:29N 52°28' E 004°40'0 0.0
2017-Sep-18 21:59N 52°28' E 004°40'0 0.0
2017-Sep-18 21:29N 52°28' E 004°40'0 0.0
2017-Sep-18 20:59N 52°28' E 004°40'0 0.0
2017-Sep-18 20:29N 52°28' E 004°40'0 0.0
2017-Sep-18 19:59N 52°28' E 004°40'0 0.0
2017-Sep-18 19:29N 52°28' E 004°40'0 0.0
2017-Sep-18 18:59N 52°28' E 004°40'0 0.0
2017-Sep-18 18:29N 52°28' E 004°40'0 0.0
2017-Sep-18 17:59N 52°28' E 004°40'0 0.0
2017-Sep-18 17:23N 52°28' E 004°40'0 0.0
2017-Sep-18 16:59N 52°28' E 004°40'0 0.0
2017-Sep-18 16:28N 52°28' E 004°40'0 0.0
2017-Sep-18 15:58N 52°28' E 004°40'0 0.0
2017-Sep-18 15:22N 52°28' E 004°40'0 0.0
2017-Sep-18 14:58N 52°28' E 004°40'0 0.0
2017-Sep-18 14:28N 52°28' E 004°40'0 0.0
2017-Sep-18 13:58N 52°28' E 004°40'0 0.0
2017-Sep-18 13:22N 52°28' E 004°40'0 0.0
2017-Sep-18 12:58N 52°28' E 004°40'0 0.0
2017-Sep-18 12:29N 52°28' E 004°40'2 3.7
2017-Sep-18 12:00N 52°28' E 004°37'1 1.7
2017-Sep-18 11:30N 52°28' E 004°36'4 8.8
2017-Sep-18 11:01N 52°28' E 004°28'4 8.5
2017-Sep-18 10:30N 52°29' E 004°21'4 8.0
2017-Sep-18 10:00N 52°31' E 004°16'0 0.1
2017-Sep-18 09:27N 52°31' E 004°16'0 0.0
2017-Sep-18 08:42N 52°31' E 004°16'0 0.0
2017-Sep-18 08:27N 52°31' E 004°16'0 0.0
2017-Sep-18 07:54N 52°31' E 004°16'0 0.0
2017-Sep-18 07:21N 52°31' E 004°16'0 0.0
2017-Sep-18 07:00N 52°31' E 004°16'0 0.0
2017-Sep-18 06:30N 52°31' E 004°16'0 0.1
2017-Sep-18 05:45N 52°31' E 004°17'0 0.1
2017-Sep-18 05:30N 52°31' E 004°17'0 0.1
2017-Sep-18 04:59N 52°31' E 004°17'2 3.8
2017-Sep-18 04:30N 52°33' E 004°14'611.1
2017-Sep-18 04:00N 52°34' E 004°05'36011.8
2017-Sep-16 21:26N 57°41' W 001°26'1013.0
2017-Sep-16 20:39N 57°49' W 001°36'213.0
2017-Sep-16 20:30N 57°51' W 001°38'5212.2
2017-Sep-16 16:16N 58°30' W 002°42'312.2
2017-Sep-16 16:00N 58°32' W 002°46'612.2
2017-Sep-16 15:30N 58°37' W 002°54'612.5
2017-Sep-16 15:00N 58°42' W 003°02'12 9.7
2017-Sep-16 13:48N 58°45' W 003°24'410.5
2017-Sep-16 13:24N 58°47' W 003°31'411.2
2017-Sep-16 13:00N 58°50' W 003°38'611.3
2017-Sep-16 12:30N 58°53' W 003°46'611.4
2017-Sep-16 12:00N 58°57' W 003°55'611.1
2017-Sep-16 11:30N 59°01' W 004°03'611.2
2017-Sep-16 11:00N 59°05' W 004°11'  
2017-Sep-12 23:34N 65°10' W 012°39'411.9
2017-Sep-12 23:16N 65°08' W 012°33'19711.4
2017-Sep-12 06:00N 62°52' W 007°10'5 9.5
2017-Sep-12 05:28N 62°48' W 007°01'6 9.5
2017-Sep-12 04:53N 62°45' W 006°52'  
Track history (hours):
 
Tides and Currents Weather Stations Pressure Air Temp Water Temp Dewpoint Dewpoint Depression Visibility Wind Speed Wind Dir Waves Ship Positions

Samskip Ice

Last reported at 2017-Sep-22 02:00 UTC. Time now 2017-Sep-23 16:43 UTC.
Position N 57°42' W 002°00'.

Length 86 m; draft 5.8 m.

Type: Cargo ship. MMSI: 311411000.

Date/timePositionNaut miles runAvg speedWind from/ knotsBaromVisibWave heightAir tempDewpointWater temp
2017-Sep-22 02:00N 57°42' W 002°00'0 0.3
2017-Sep-22 01:30N 57°42' W 001°60'1 2.7
2017-Sep-22 01:00N 57°42' W 001°57'2 4.6
2017-Sep-22 00:30N 57°42' W 001°53'4 7.4
2017-Sep-22 00:00N 57°41' W 001°47'5 9.5
2017-Sep-21 23:30N 57°38' W 001°40'611.1
2017-Sep-21 23:00N 57°33' W 001°33'28913.4
2017-Sep-21 01:24N 53°22' E 002°40'914.0
2017-Sep-21 00:47N 53°17' E 002°52'6012.5
2017-Sep-20 20:00N 52°36' E 004°05'612.3
2017-Sep-20 19:30N 52°32' E 004°12'612.6
2017-Sep-20 19:00N 52°30' E 004°21'611.3
2017-Sep-20 18:30N 52°28' E 004°30'3 5.5
2017-Sep-20 17:58N 52°28' E 004°35'0 0.0
2017-Sep-20 17:25N 52°28' E 004°35'0 0.0
2017-Sep-20 16:58N 52°28' E 004°35'0 0.0
2017-Sep-20 16:25N 52°28' E 004°35'0 0.0
2017-Sep-20 15:58N 52°28' E 004°35'0 0.0
2017-Sep-20 15:28N 52°28' E 004°35'0 0.0
2017-Sep-20 13:58N 52°28' E 004°35'0 0.0
2017-Sep-20 13:28N 52°28' E 004°35'0 0.0
2017-Sep-20 12:58N 52°28' E 004°35'0 0.0
2017-Sep-20 12:28N 52°28' E 004°35'0 0.0
2017-Sep-20 11:58N 52°28' E 004°35'0 0.0
2017-Sep-20 11:28N 52°28' E 004°35'0 0.0
2017-Sep-20 10:58N 52°28' E 004°35'0 0.0
2017-Sep-20 10:28N 52°28' E 004°35'0 0.0
2017-Sep-20 09:58N 52°28' E 004°35'0 0.0
2017-Sep-20 09:28N 52°28' E 004°35'0 0.0
2017-Sep-20 08:58N 52°28' E 004°35'0 0.0
2017-Sep-20 08:28N 52°28' E 004°35'0 0.0
2017-Sep-20 07:58N 52°28' E 004°35'0 0.0
2017-Sep-20 07:28N 52°28' E 004°35'0 0.0
2017-Sep-20 06:55N 52°28' E 004°35'0 0.0
2017-Sep-20 06:28N 52°28' E 004°35'0 0.0
2017-Sep-20 05:58N 52°28' E 004°35'0 0.0
2017-Sep-20 05:28N 52°28' E 004°35'0 0.0
2017-Sep-20 04:58N 52°28' E 004°35'0 0.0
2017-Sep-20 04:28N 52°28' E 004°35'0 0.0
2017-Sep-20 03:58N 52°28' E 004°35'0 0.0
2017-Sep-20 03:28N 52°28' E 004°35'0 0.0
2017-Sep-20 02:58N 52°28' E 004°35'0 0.0
2017-Sep-20 02:28N 52°28' E 004°35'0 0.0
2017-Sep-20 01:58N 52°28' E 004°35'0 0.0
2017-Sep-20 01:22N 52°28' E 004°35'0 0.0
2017-Sep-20 00:58N 52°28' E 004°35'0 0.0
2017-Sep-20 00:22N 52°28' E 004°35'0 0.0
2017-Sep-19 23:55N 52°28' E 004°35'0 0.0
2017-Sep-19 23:28N 52°28' E 004°35'0 0.0
2017-Sep-19 22:58N 52°28' E 004°35'0 0.0
2017-Sep-19 22:28N 52°28' E 004°35'0 0.0
2017-Sep-19 21:52N 52°28' E 004°35'0 0.0
2017-Sep-19 21:28N 52°28' E 004°35'0 0.0
2017-Sep-19 20:52N 52°28' E 004°35'0 0.0
2017-Sep-19 20:28N 52°28' E 004°35'0 0.0
2017-Sep-19 19:58N 52°28' E 004°35'0 0.0
2017-Sep-19 19:30N 52°28' E 004°35'1 1.6
2017-Sep-19 19:01N 52°28' E 004°36'1 2.9
2017-Sep-19 18:31N 52°28' E 004°38'1 1.7
2017-Sep-19 17:59N 52°28' E 004°40'0 0.0
2017-Sep-19 17:29N 52°28' E 004°40'0 0.0
2017-Sep-19 16:59N 52°28' E 004°40'0 0.0
2017-Sep-19 16:29N 52°28' E 004°40'0 0.0
2017-Sep-19 15:59N 52°28' E 004°40'0 0.0
2017-Sep-19 15:29N 52°28' E 004°40'0 0.0
2017-Sep-19 14:59N 52°28' E 004°40'0 0.0
2017-Sep-19 14:29N 52°28' E 004°40'0 0.0
2017-Sep-19 13:59N 52°28' E 004°40'0 0.0
2017-Sep-19 13:29N 52°28' E 004°40'0 0.0
2017-Sep-19 12:56N 52°28' E 004°40'0 0.0
2017-Sep-19 12:29N 52°28' E 004°40'0 0.0
2017-Sep-19 11:59N 52°28' E 004°40'0 0.0
2017-Sep-19 11:29N 52°28' E 004°40'0 0.0
2017-Sep-19 10:59N 52°28' E 004°40'0 0.0
2017-Sep-19 10:29N 52°28' E 004°40'0 0.0
2017-Sep-19 09:59N 52°28' E 004°40'0 0.0
2017-Sep-19 09:29N 52°28' E 004°40'0 0.0
2017-Sep-19 08:59N 52°28' E 004°40'0 0.0
2017-Sep-19 08:29N 52°28' E 004°40'0 0.0
2017-Sep-19 07:59N 52°28' E 004°40'0 0.0
2017-Sep-19 07:29N 52°28' E 004°40'0 0.0
2017-Sep-19 06:59N 52°28' E 004°40'0 0.0
2017-Sep-19 06:29N 52°28' E 004°40'0 0.0
2017-Sep-19 05:59N 52°28' E 004°40'0 0.0
2017-Sep-19 05:29N 52°28' E 004°40'0 0.0
2017-Sep-19 04:59N 52°28' E 004°40'0 0.0
2017-Sep-19 04:29N 52°28' E 004°40'0 0.0
2017-Sep-19 03:59N 52°28' E 004°40'0 0.0
2017-Sep-19 03:29N 52°28' E 004°40'0 0.0
2017-Sep-19 02:59N 52°28' E 004°40'0 0.0
2017-Sep-19 02:29N 52°28' E 004°40'0 0.0
2017-Sep-19 01:59N 52°28' E 004°40'0 0.0
2017-Sep-19 01:29N 52°28' E 004°40'0 0.0
2017-Sep-19 00:59N 52°28' E 004°40'0 0.0
2017-Sep-19 00:29N 52°28' E 004°40'0 0.0
2017-Sep-18 23:59N 52°28' E 004°40'0 0.0
2017-Sep-18 23:29N 52°28' E 004°40'0 0.0
2017-Sep-18 22:59N 52°28' E 004°40'0 0.0
2017-Sep-18 22:29N 52°28' E 004°40'0 0.0
2017-Sep-18 21:59N 52°28' E 004°40'0 0.0
2017-Sep-18 21:29N 52°28' E 004°40'0 0.0
2017-Sep-18 20:59N 52°28' E 004°40'0 0.0
2017-Sep-18 20:29N 52°28' E 004°40'0 0.0
2017-Sep-18 19:59N 52°28' E 004°40'0 0.0
2017-Sep-18 19:29N 52°28' E 004°40'0 0.0
2017-Sep-18 18:59N 52°28' E 004°40'0 0.0
2017-Sep-18 18:29N 52°28' E 004°40'0 0.0
2017-Sep-18 17:59N 52°28' E 004°40'0 0.0
2017-Sep-18 17:23N 52°28' E 004°40'0 0.0
2017-Sep-18 16:59N 52°28' E 004°40'0 0.0
2017-Sep-18 16:28N 52°28' E 004°40'0 0.0
2017-Sep-18 15:58N 52°28' E 004°40'0 0.0
2017-Sep-18 15:22N 52°28' E 004°40'0 0.0
2017-Sep-18 14:58N 52°28' E 004°40'0 0.0
2017-Sep-18 14:28N 52°28' E 004°40'0 0.0
2017-Sep-18 13:58N 52°28' E 004°40'0 0.0
2017-Sep-18 13:22N 52°28' E 004°40'0 0.0
2017-Sep-18 12:58N 52°28' E 004°40'0 0.0
2017-Sep-18 12:29N 52°28' E 004°40'2 3.7
2017-Sep-18 12:00N 52°28' E 004°37'1 1.7
2017-Sep-18 11:30N 52°28' E 004°36'4 8.8
2017-Sep-18 11:01N 52°28' E 004°28'4 8.5
2017-Sep-18 10:30N 52°29' E 004°21'4 8.0
2017-Sep-18 10:00N 52°31' E 004°16'0 0.1
2017-Sep-18 09:27N 52°31' E 004°16'0 0.0
2017-Sep-18 08:42N 52°31' E 004°16'0 0.0
2017-Sep-18 08:27N 52°31' E 004°16'0 0.0
2017-Sep-18 07:54N 52°31' E 004°16'0 0.0
2017-Sep-18 07:21N 52°31' E 004°16'0 0.0
2017-Sep-18 07:00N 52°31' E 004°16'0 0.0
2017-Sep-18 06:30N 52°31' E 004°16'0 0.1
2017-Sep-18 05:45N 52°31' E 004°17'0 0.1
2017-Sep-18 05:30N 52°31' E 004°17'0 0.1
2017-Sep-18 04:59N 52°31' E 004°17'2 3.8
2017-Sep-18 04:30N 52°33' E 004°14'611.1
2017-Sep-18 04:00N 52°34' E 004°05'36011.8
2017-Sep-16 21:26N 57°41' W 001°26'1013.0
2017-Sep-16 20:39N 57°49' W 001°36'213.0
2017-Sep-16 20:30N 57°51' W 001°38'5212.2
2017-Sep-16 16:16N 58°30' W 002°42'312.2
2017-Sep-16 16:00N 58°32' W 002°46'612.2
2017-Sep-16 15:30N 58°37' W 002°54'612.5
2017-Sep-16 15:00N 58°42' W 003°02'12 9.7
2017-Sep-16 13:48N 58°45' W 003°24'410.5
2017-Sep-16 13:24N 58°47' W 003°31'411.2
2017-Sep-16 13:00N 58°50' W 003°38'611.3
2017-Sep-16 12:30N 58°53' W 003°46'611.4
2017-Sep-16 12:00N 58°57' W 003°55'611.1
2017-Sep-16 11:30N 59°01' W 004°03'611.2
2017-Sep-16 11:00N 59°05' W 004°11'  
2017-Sep-12 23:34N 65°10' W 012°39'411.9
2017-Sep-12 23:16N 65°08' W 012°33'19711.4
2017-Sep-12 06:00N 62°52' W 007°10'5 9.5
2017-Sep-12 05:28N 62°48' W 007°01'6 9.5
2017-Sep-12 04:53N 62°45' W 006°52'  

Dump ship's entire track history